createdAt,value
2022-10-02T00:00:00.239Z,99425.44
2022-10-02T00:02:46.744Z,99426.47
2022-10-02T00:05:44.705Z,99426.75
2022-10-02T00:08:25.862Z,99424.84
2022-10-02T00:11:16.464Z,99430.91
2022-10-02T00:13:48.638Z,99439.56
2022-10-02T00:16:26.435Z,99432.75
2022-10-02T00:18:56.057Z,99436.31
2022-10-02T00:21:45.179Z,99444.16
2022-10-02T00:25:01.323Z,99437.88
2022-10-02T00:27:49.784Z,99437.00
2022-10-02T00:30:18.098Z,99431.00
2022-10-02T00:33:19.300Z,99438.09
2022-10-02T00:36:06.562Z,99444.25
2022-10-02T00:38:56.410Z,99439.06
2022-10-02T00:41:41.258Z,99450.22
2022-10-02T00:44:38.019Z,99444.13
2022-10-02T00:47:23.304Z,99452.94
2022-10-02T00:50:15.922Z,99447.59
2022-10-02T00:52:49.861Z,99448.50
2022-10-02T00:55:45.689Z,99446.84
2022-10-02T00:58:27.340Z,99448.34
2022-10-02T01:01:34.555Z,99452.84
2022-10-02T01:04:08.662Z,99443.97
2022-10-02T01:06:35.822Z,99451.06
2022-10-02T01:09:03.326Z,99448.56
2022-10-02T01:11:30.867Z,99460.81
2022-10-02T01:13:58.308Z,99453.56
2022-10-02T01:16:26.172Z,99460.66
2022-10-02T01:18:53.322Z,99463.44
2022-10-02T01:21:50.753Z,99466.06
2022-10-02T01:24:37.074Z,99457.13
2022-10-02T01:27:04.234Z,99462.53
2022-10-02T01:29:31.228Z,99457.19
2022-10-02T01:31:58.258Z,99467.84
2022-10-02T01:34:25.946Z,99460.78
2022-10-02T01:36:53.567Z,99458.91
2022-10-02T01:39:22.339Z,99472.09
2022-10-02T01:41:49.335Z,99467.72
2022-10-02T01:44:16.786Z,99475.78
2022-10-02T01:47:05.139Z,99481.00
2022-10-02T01:49:59.726Z,99468.72
2022-10-02T01:52:47.196Z,99468.75
2022-10-02T01:56:01.418Z,99473.09
2022-10-02T01:59:05.236Z,99483.66
2022-10-02T02:01:52.723Z,99488.94
2022-10-02T02:04:29.100Z,99500.22
2022-10-02T02:07:34.414Z,99494.75
2022-10-02T02:10:26.576Z,99503.00
2022-10-02T02:13:29.838Z,99494.94
2022-10-02T02:16:25.611Z,99502.06
2022-10-02T02:19:14.154Z,99511.84
2022-10-02T02:22:11.922Z,99507.06
2022-10-02T02:24:56.439Z,99508.16
2022-10-02T02:27:27.980Z,99516.28
2022-10-02T02:30:03.024Z,99515.41
2022-10-02T02:32:36.128Z,99520.59
2022-10-02T02:35:18.313Z,99519.59
2022-10-02T02:37:49.339Z,99514.41
2022-10-02T02:40:22.367Z,99519.66
2022-10-02T02:43:04.962Z,99522.06
2022-10-02T02:45:58.837Z,99528.09
2022-10-02T02:48:43.704Z,99519.59
2022-10-02T02:51:22.407Z,99520.28
2022-10-02T02:53:58.896Z,99516.63
2022-10-02T02:56:29.264Z,99519.22
2022-10-02T02:59:14.265Z,99517.38
2022-10-02T03:01:42.227Z,99511.13
2022-10-02T03:04:14.062Z,99516.44
2022-10-02T03:06:57.069Z,99523.63
2022-10-02T03:09:26.160Z,99533.44
2022-10-02T03:12:05.006Z,99516.63
2022-10-02T03:15:15.626Z,99530.91
2022-10-02T03:18:25.916Z,99536.09
2022-10-02T03:21:10.088Z,99536.06
2022-10-02T03:23:45.436Z,99529.00
2022-10-02T03:26:33.455Z,99527.13
2022-10-02T03:29:05.440Z,99526.28
2022-10-02T03:31:35.122Z,99532.44
2022-10-02T03:34:03.691Z,99526.22
2022-10-02T03:36:31.328Z,99531.59
2022-10-02T03:41:49.850Z,99529.84
2022-10-02T03:44:16.782Z,99539.50
2022-10-02T03:46:43.896Z,99536.28
2022-10-02T03:49:10.945Z,99540.94
2022-10-02T03:51:37.885Z,99538.88
2022-10-02T03:54:16.768Z,99533.31
2022-10-02T03:56:51.984Z,99537.81
2022-10-02T03:59:33.957Z,99533.56
2022-10-02T04:02:06.854Z,99534.44
2022-10-02T04:04:52.049Z,99538.00
2022-10-02T04:07:29.764Z,99547.53
2022-10-02T04:10:20.496Z,99544.72
2022-10-02T04:12:55.634Z,99537.66
2022-10-02T04:15:32.715Z,99545.72
2022-10-02T04:18:15.778Z,99553.59
2022-10-02T04:20:59.734Z,99545.78
2022-10-02T04:23:43.885Z,99547.56
2022-10-02T04:26:25.890Z,99545.78
2022-10-02T04:29:06.782Z,99549.31
2022-10-02T04:31:34.004Z,99549.38
2022-10-02T04:34:03.329Z,99552.78
2022-10-02T04:37:16.747Z,99556.44
2022-10-02T04:40:07.291Z,99558.28
2022-10-02T04:43:10.957Z,99557.44
2022-10-02T04:45:59.008Z,99559.09
2022-10-02T04:48:52.407Z,99559.03
2022-10-02T04:51:25.226Z,99558.22
2022-10-02T04:54:31.803Z,99561.75
2022-10-02T04:57:32.094Z,99562.66
2022-10-02T05:00:34.046Z,99575.09
2022-10-02T05:03:41.326Z,99572.38
2022-10-02T05:06:14.182Z,99579.47
2022-10-02T05:09:08.815Z,99571.53
2022-10-02T05:12:18.486Z,99577.78
2022-10-02T05:15:04.873Z,99579.47
2022-10-02T05:17:58.961Z,99589.38
2022-10-02T05:21:12.539Z,99588.56
2022-10-02T05:24:23.604Z,99584.16
2022-10-02T05:27:21.256Z,99595.69
2022-10-02T05:30:08.638Z,99584.16
2022-10-02T05:33:11.834Z,99592.94
2022-10-02T05:35:49.650Z,99596.72
2022-10-02T05:38:54.704Z,99599.28
2022-10-02T05:41:52.028Z,99601.81
2022-10-02T05:44:42.672Z,99601.88
2022-10-02T05:47:25.188Z,99606.31
2022-10-02T05:50:06.424Z,99606.41
2022-10-02T05:53:11.029Z,99606.38
2022-10-02T05:56:01.342Z,99614.19
2022-10-02T05:58:41.633Z,99616.84
2022-10-02T06:01:22.865Z,99615.09
2022-10-02T06:04:17.253Z,99621.75
2022-10-02T06:06:51.718Z,99618.88
2022-10-02T06:09:27.641Z,99625.97
2022-10-02T06:12:23.746Z,99625.91
2022-10-02T06:15:01.369Z,99621.50
2022-10-02T06:17:31.314Z,99624.19
2022-10-02T06:20:04.246Z,99623.28
2022-10-02T06:22:44.270Z,99623.47
2022-10-02T06:25:21.386Z,99626.00
2022-10-02T06:27:59.019Z,99618.03
2022-10-02T06:30:26.702Z,99637.69
2022-10-02T06:33:09.728Z,99625.38
2022-10-02T06:35:45.426Z,99634.19
2022-10-02T06:39:00.666Z,99638.00
2022-10-02T06:41:48.870Z,99634.69
2022-10-02T06:44:34.491Z,99638.38
2022-10-02T06:47:35.432Z,99640.94
2022-10-02T06:50:20.135Z,99647.78
2022-10-02T06:53:25.526Z,99646.03
2022-10-02T06:56:34.052Z,99644.28
2022-10-02T06:59:47.528Z,99647.06
2022-10-02T07:02:34.914Z,99655.25
2022-10-02T07:05:45.129Z,99650.69
2022-10-02T07:08:28.799Z,99665.59
2022-10-02T07:11:26.038Z,99665.69
2022-10-02T07:14:28.037Z,99666.47
2022-10-02T07:17:32.268Z,99666.72
2022-10-02T07:20:29.743Z,99679.84
2022-10-02T07:23:28.787Z,99676.50
2022-10-02T07:26:36.707Z,99684.41
2022-10-02T07:29:25.654Z,99692.41
2022-10-02T07:32:11.788Z,99687.91
2022-10-02T07:34:52.253Z,99683.53
2022-10-02T07:37:48.392Z,99684.56
2022-10-02T07:40:37.613Z,99688.94
2022-10-02T07:43:29.109Z,99695.53
2022-10-02T07:46:46.769Z,99693.03
2022-10-02T07:49:56.848Z,99683.13
2022-10-02T07:52:59.157Z,99700.88
2022-10-02T07:55:26.846Z,99692.91
2022-10-02T07:58:03.193Z,99703.59
2022-10-02T08:00:47.280Z,99691.28
2022-10-02T08:03:23.270Z,99695.63
2022-10-02T08:05:58.276Z,99700.00
2022-10-02T08:08:47.788Z,99695.72
2022-10-02T08:11:30.284Z,99703.59
2022-10-02T08:14:03.501Z,99706.22
2022-10-02T08:16:41.190Z,99707.19
2022-10-02T08:19:16.798Z,99709.59
2022-10-02T08:21:50.104Z,99706.13
2022-10-02T08:24:30.689Z,99707.75
2022-10-02T08:27:23.431Z,99704.78
2022-10-02T08:30:04.361Z,99709.03
2022-10-02T08:32:36.264Z,99708.16
2022-10-02T08:35:14.274Z,99718.63
2022-10-02T08:38:32.236Z,99719.44
2022-10-02T08:41:52.700Z,99714.38
2022-10-02T08:44:57.413Z,99719.91
2022-10-02T08:47:54.578Z,99721.72
2022-10-02T08:51:06.234Z,99718.44
2022-10-02T08:54:04.418Z,99726.59
2022-10-02T08:57:01.422Z,99731.22
2022-10-02T09:00:00.161Z,99731.22
2022-10-02T09:03:05.329Z,99724.19
2022-10-02T09:06:28.615Z,99725.09
2022-10-02T09:09:59.623Z,99723.50
2022-10-02T09:12:58.277Z,99714.72
2022-10-02T09:15:52.895Z,99719.91
2022-10-02T09:19:03.014Z,99713.69
2022-10-02T09:22:00.201Z,99710.22
2022-10-02T09:25:13.376Z,99714.50
2022-10-02T09:27:59.278Z,99721.69
2022-10-02T09:31:06.049Z,99722.59
2022-10-02T09:34:18.089Z,99720.84
2022-10-02T09:37:18.304Z,99725.34
2022-10-02T09:40:25.783Z,99720.06
2022-10-02T09:43:11.942Z,99724.00
2022-10-02T09:46:37.061Z,99722.22
2022-10-02T09:50:10.240Z,99721.28
2022-10-02T09:53:53.317Z,99709.81
2022-10-02T09:56:47.447Z,99706.31
2022-10-02T09:59:35.583Z,99699.81
2022-10-02T10:02:25.931Z,99699.38
2022-10-02T10:05:33.245Z,99697.25
2022-10-02T10:08:41.751Z,99688.91
2022-10-02T10:11:36.012Z,99681.91
2022-10-02T10:14:11.759Z,99672.97
2022-10-02T10:16:53.551Z,99670.00
2022-10-02T10:20:06.543Z,99681.66
2022-10-02T10:22:57.732Z,99685.41
2022-10-02T10:26:20.814Z,99669.97
2022-10-02T10:29:04.128Z,99665.28
2022-10-02T10:31:59.246Z,99668.16
2022-10-02T10:34:54.464Z,99662.84
2022-10-02T10:38:00.864Z,99674.09
2022-10-02T10:40:46.412Z,99665.38
2022-10-02T10:44:00.039Z,99673.03
2022-10-02T10:47:08.470Z,99666.91
2022-10-02T10:50:10.897Z,99683.41
2022-10-02T10:53:04.430Z,99675.72
2022-10-02T10:56:36.930Z,99695.09
2022-10-02T10:59:33.710Z,99692.97
2022-10-02T11:02:47.408Z,99696.69
2022-10-02T11:05:48.057Z,99687.78
2022-10-02T11:08:18.401Z,99688.28
2022-10-02T11:11:09.209Z,99696.72
2022-10-02T11:14:07.233Z,99693.03
2022-10-02T11:17:06.329Z,99683.53
2022-10-02T11:20:08.407Z,99683.25
2022-10-02T11:23:00.372Z,99680.38
2022-10-02T11:26:06.204Z,99681.13
2022-10-02T11:29:16.089Z,99684.72
2022-10-02T11:32:31.778Z,99676.75
2022-10-02T11:35:13.559Z,99680.31
2022-10-02T11:38:09.392Z,99668.81
2022-10-02T11:41:13.208Z,99665.56
2022-10-02T11:44:12.305Z,99672.56
2022-10-02T11:47:22.659Z,99667.13
2022-10-02T11:50:46.663Z,99670.66
2022-10-02T11:53:34.484Z,99667.25
2022-10-02T11:56:25.214Z,99662.84
2022-10-02T11:59:35.508Z,99664.56
2022-10-02T12:02:22.401Z,99669.91
2022-10-02T12:05:15.513Z,99670.84
2022-10-02T12:08:29.689Z,99672.69
2022-10-02T12:11:27.048Z,99679.03
2022-10-02T12:14:22.510Z,99687.97
2022-10-02T12:17:16.591Z,99678.22
2022-10-02T12:20:31.166Z,99675.59
2022-10-02T12:23:43.262Z,99677.41
2022-10-02T12:27:04.643Z,99672.94
2022-10-02T12:29:51.417Z,99668.50
2022-10-02T12:32:38.554Z,99667.63
2022-10-02T12:35:42.789Z,99662.34
2022-10-02T12:38:28.895Z,99656.13
2022-10-02T12:41:03.340Z,99656.97
2022-10-02T12:44:17.141Z,99656.03
2022-10-02T12:47:17.664Z,99656.13
2022-10-02T12:50:23.322Z,99649.91
2022-10-02T12:53:11.666Z,99650.81
2022-10-02T12:56:16.412Z,99657.91
2022-10-02T12:59:10.775Z,99658.81
2022-10-02T13:02:18.144Z,99656.13
2022-10-02T13:05:20.872Z,99652.59
2022-10-02T13:08:21.218Z,99653.41
2022-10-02T13:10:57.410Z,99653.44
2022-10-02T13:14:07.839Z,99646.28
2022-10-02T13:17:23.046Z,99642.66
2022-10-02T13:20:09.081Z,99638.28
2022-10-02T13:23:17.895Z,99636.50
2022-10-02T13:26:32.182Z,99643.66
2022-10-02T13:29:32.745Z,99636.59
2022-10-02T13:32:26.951Z,99641.06
2022-10-02T13:35:21.180Z,99648.13
2022-10-02T13:38:34.918Z,99637.53
2022-10-02T13:41:46.663Z,99633.09
2022-10-02T13:44:53.891Z,99645.47
2022-10-02T13:47:58.966Z,99639.28
2022-10-02T13:50:59.894Z,99641.06
2022-10-02T13:54:18.476Z,99641.03
2022-10-02T13:57:08.820Z,99636.59
2022-10-02T14:00:23.900Z,99635.63
2022-10-02T14:03:18.484Z,99637.44
2022-10-02T14:06:23.096Z,99633.00
2022-10-02T14:09:12.482Z,99630.34
2022-10-02T14:12:30.273Z,99628.63
2022-10-02T14:15:38.677Z,99629.50
2022-10-02T14:18:22.228Z,99625.06
2022-10-02T14:21:13.677Z,99626.78
2022-10-02T14:25:00.634Z,99632.16
2022-10-02T14:27:57.000Z,99620.53
2022-10-02T14:30:55.153Z,99616.97
2022-10-02T14:34:02.458Z,99624.88
2022-10-02T14:37:18.425Z,99617.88
2022-10-02T14:39:45.746Z,99627.75
2022-10-02T14:42:44.321Z,99623.31
2022-10-02T14:46:04.380Z,99620.63
2022-10-02T14:48:59.021Z,99610.00
2022-10-02T14:52:01.478Z,99610.00
2022-10-02T14:54:44.039Z,99612.69
2022-10-02T14:57:43.633Z,99619.75
2022-10-02T15:00:22.024Z,99610.88
2022-10-02T15:03:10.186Z,99609.97
2022-10-02T15:06:01.717Z,99609.13
2022-10-02T15:08:53.220Z,99607.34
2022-10-02T15:11:43.084Z,99610.88
2022-10-02T15:14:19.757Z,99611.78
2022-10-02T15:17:15.192Z,99602.91
2022-10-02T15:20:06.437Z,99609.09
2022-10-02T15:22:46.732Z,99609.97
2022-10-02T15:25:31.942Z,99612.59
2022-10-02T15:28:36.815Z,99615.28
2022-10-02T15:31:31.730Z,99616.13
2022-10-02T15:34:22.890Z,99619.69
2022-10-02T15:37:32.858Z,99617.94
2022-10-02T15:40:33.722Z,99611.69
2022-10-02T15:43:50.562Z,99611.66
2022-10-02T15:47:16.035Z,99609.75
2022-10-02T15:50:14.394Z,99617.69
2022-10-02T15:52:51.991Z,99623.00
2022-10-02T15:55:50.768Z,99631.81
2022-10-02T15:58:29.998Z,99630.91
2022-10-02T16:01:41.508Z,99635.28
2022-10-02T16:04:52.602Z,99642.22
2022-10-02T16:07:47.290Z,99637.78
2022-10-02T16:10:36.117Z,99633.34
2022-10-02T16:13:27.512Z,99641.25
2022-10-02T16:15:58.435Z,99642.94
2022-10-02T16:19:11.940Z,99635.69
2022-10-02T16:22:34.539Z,99636.59
2022-10-02T16:25:39.512Z,99636.69
2022-10-02T16:28:31.645Z,99638.41
2022-10-02T16:31:03.662Z,99637.44
2022-10-02T16:34:34.245Z,99626.69
2022-10-02T16:37:29.375Z,99634.59
2022-10-02T16:40:01.598Z,99626.72
2022-10-02T16:43:12.927Z,99630.13
2022-10-02T16:46:01.485Z,99624.59
2022-10-02T16:49:00.692Z,99635.28
2022-10-02T16:52:01.896Z,99626.56
2022-10-02T16:55:12.979Z,99625.56
2022-10-02T16:57:39.795Z,99626.41
2022-10-02T17:00:16.871Z,99617.25
2022-10-02T17:03:23.935Z,99618.19
2022-10-02T17:06:15.764Z,99616.47
2022-10-02T17:09:20.245Z,99621.72
2022-10-02T17:11:57.639Z,99627.75
2022-10-02T17:14:52.657Z,99627.59
2022-10-02T17:17:25.404Z,99639.13
2022-10-02T17:20:01.115Z,99632.09
2022-10-02T17:22:44.140Z,99631.06
2022-10-02T17:25:23.099Z,99631.03
2022-10-02T17:28:20.839Z,99635.25
2022-10-02T17:31:09.455Z,99631.69
2022-10-02T17:33:57.306Z,99629.09
2022-10-02T17:36:41.305Z,99627.19
2022-10-02T17:39:58.900Z,99630.53
2022-10-02T17:42:41.251Z,99628.72
2022-10-02T17:45:42.933Z,99634.06
2022-10-02T17:48:21.770Z,99629.50
2022-10-02T17:51:47.126Z,99633.06
2022-10-02T17:54:49.107Z,99627.78
2022-10-02T17:57:22.789Z,99621.69
2022-10-02T18:00:22.028Z,99620.75
2022-10-02T18:03:11.194Z,99619.75
2022-10-02T18:06:14.839Z,99613.41
2022-10-02T18:09:15.734Z,99618.63
2022-10-02T18:12:15.854Z,99616.78
2022-10-02T18:15:28.513Z,99616.91
2022-10-02T18:18:18.440Z,99612.38
2022-10-02T18:21:12.067Z,99601.66
2022-10-02T18:24:04.957Z,99616.41
2022-10-02T18:27:18.416Z,99616.34
2022-10-02T18:30:17.364Z,99610.47
2022-10-02T18:33:32.861Z,99617.22
2022-10-02T18:36:17.994Z,99612.84
2022-10-02T18:39:12.162Z,99614.69
2022-10-02T18:41:54.512Z,99618.97
2022-10-02T18:44:45.235Z,99619.84
2022-10-02T18:47:41.034Z,99618.06
2022-10-02T18:50:39.748Z,99616.97
2022-10-02T18:53:28.781Z,99605.41
2022-10-02T18:56:12.271Z,99624.13
2022-10-02T18:59:14.615Z,99617.13
2022-10-02T19:02:02.503Z,99614.50
2022-10-02T19:05:08.991Z,99615.44
2022-10-02T19:07:50.322Z,99612.00
2022-10-02T19:10:29.605Z,99604.13
2022-10-02T19:13:17.996Z,99611.13
2022-10-02T19:15:47.840Z,99605.78
2022-10-02T19:18:27.904Z,99587.28
2022-10-02T19:21:05.543Z,99605.00
2022-10-02T19:24:01.400Z,99626.16
2022-10-02T19:26:33.357Z,99626.16
2022-10-02T19:29:20.024Z,99628.94
2022-10-02T19:31:47.194Z,99621.28
2022-10-02T19:34:28.275Z,99612.34
2022-10-02T19:37:04.233Z,99618.47
2022-10-02T19:39:49.287Z,99615.09
2022-10-02T19:42:31.333Z,99617.78
2022-10-02T19:45:08.964Z,99617.34
2022-10-02T19:47:49.329Z,99610.13
2022-10-02T19:50:36.337Z,99608.56
2022-10-02T19:53:15.715Z,99610.22
2022-10-02T19:55:43.715Z,99604.91
2022-10-02T19:58:23.085Z,99607.97
2022-10-02T20:00:52.359Z,99625.63
2022-10-02T20:03:25.042Z,99610.53
2022-10-02T20:06:03.143Z,99614.63
2022-10-02T20:08:42.477Z,99612.78
2022-10-02T20:11:34.280Z,99608.44
2022-10-02T20:14:15.545Z,99611.75
2022-10-02T20:17:01.272Z,99611.78
2022-10-02T20:19:34.423Z,99612.44
2022-10-02T20:22:22.752Z,99608.88
2022-10-02T20:25:10.010Z,99605.31
2022-10-02T20:28:14.164Z,99602.56
2022-10-02T20:31:18.328Z,99595.44
2022-10-02T20:34:01.039Z,99594.16
2022-10-02T20:36:39.942Z,99610.19
2022-10-02T20:39:17.806Z,99607.47
2022-10-02T20:42:59.043Z,99612.03
2022-10-02T20:45:46.660Z,99601.31
2022-10-02T20:49:09.490Z,99599.53
2022-10-02T20:52:24.447Z,99600.19
2022-10-02T20:55:50.564Z,99602.00
2022-10-02T20:59:03.828Z,99609.28
2022-10-02T21:02:13.904Z,99604.72
2022-10-02T21:05:05.181Z,99615.00
2022-10-02T21:07:50.692Z,99615.09
2022-10-02T21:10:45.238Z,99613.41
2022-10-02T21:13:19.497Z,99607.34
2022-10-02T21:16:32.628Z,99608.34
2022-10-02T21:19:21.362Z,99603.75
2022-10-02T21:22:19.934Z,99598.38
2022-10-02T21:25:35.902Z,99598.50
2022-10-02T21:28:14.627Z,99597.53
2022-10-02T21:30:53.143Z,99590.28
2022-10-02T21:33:27.667Z,99597.28
2022-10-02T21:36:18.227Z,99594.63
2022-10-02T21:39:26.593Z,99596.34
2022-10-02T21:42:34.597Z,99593.72
2022-10-02T21:45:47.922Z,99586.25
2022-10-02T21:49:06.690Z,99593.44
2022-10-02T21:51:53.142Z,99592.56
2022-10-02T21:54:42.902Z,99600.47
2022-10-02T21:57:56.675Z,99603.59
2022-10-02T22:00:28.373Z,99592.19
2022-10-02T22:03:25.480Z,99602.75
2022-10-02T22:06:20.896Z,99605.16
2022-10-02T22:09:03.744Z,99593.06
2022-10-02T22:11:47.552Z,99598.50
2022-10-02T22:14:32.856Z,99597.72
2022-10-02T22:17:13.445Z,99597.34
2022-10-02T22:20:26.258Z,99599.81
2022-10-02T22:23:23.530Z,99598.38
2022-10-02T22:26:04.906Z,99591.13
2022-10-02T22:28:43.941Z,99594.81
2022-10-02T22:31:52.454Z,99597.28
2022-10-02T22:34:45.038Z,99596.53
2022-10-02T22:37:33.651Z,99600.97
2022-10-02T22:40:30.183Z,99584.03
2022-10-02T22:43:06.620Z,99598.03
2022-10-02T22:45:45.633Z,99589.31
2022-10-02T22:51:18.727Z,99597.84
2022-10-02T22:53:59.823Z,99600.59
2022-10-02T22:56:42.801Z,99597.09
2022-10-02T22:59:18.208Z,99598.13
2022-10-02T23:01:51.522Z,99600.47
2022-10-02T23:04:47.268Z,99597.06
2022-10-02T23:07:37.780Z,99597.75
2022-10-02T23:10:35.553Z,99601.31
2022-10-02T23:13:12.717Z,99590.72
2022-10-02T23:16:12.839Z,99599.47
2022-10-02T23:18:54.283Z,99596.19
2022-10-02T23:21:49.452Z,99594.56
2022-10-02T23:24:31.914Z,99601.25
2022-10-02T23:27:48.370Z,99604.06
2022-10-02T23:30:21.531Z,99597.25
2022-10-02T23:33:18.261Z,99601.47
2022-10-02T23:35:59.598Z,99604.31
